Portada
METAR-TAF:

METAR-TAF

Aeroports :

Meiringen, Suïssa

latitud: 46-44-25N, longitud: 8-06-36E, altitud: 577 m

Observació

L'informe es va fer fa 17 minuts, a les 15:20 UTC
Vent 8 kt del Est/Sud-Est
Temperatura -1°C
Humitat 86%
Pressió 1026 hPa
Visibilitat 10 km o més
Escasses núvols a una alçada de 4200 ft

METAR: LSMM 101520Z 11008KT 9999 FEW042 M01/M03 Q1026 RMK BLU+

Hora: 16:37 (15:37 UTC)


TAF: manca

Observacions i pronòstics meteorològics de més de 4000 aeroports (METAR i TAF).

Les estacions disponibles són els punts grocs i vermells al mapa.

Posi el ratolí al punt desitjat per veure el nom de l'estació.

Feu clic per veure les observacions i els pronòstics meteorològics.

Per canviar el mapa: feu clic els botons verds amb una creu de color negre per apropar; al botó verd amb un guió per allunyar la imatge; o en les fletxes verdes per a mapes adjacents.


METAR-TAF: